Alfredo Wagner, Brazil
Current Conditions -  °F | °C
As of 1:00 AM on Tuesday 21 Oct 2014 (Local Time) from SBFL Reporting Station
Broken Clouds Broken Clouds  
Wind Chill: 66°   Ceiling: 3000
Heat Index: 66°   Visibility: 6mi
Dew Point: 54°   Wind: 13mph
Humidity: 64%   Direction: 180°S
Pressure: 30.12"   Gusts: NA
Location:  27.7°S, 49.33°W
Report Text: SBFL 210400Z 18011KT 9999 BKN030 19/12 Q1020
Loading
Personal Weather Stations






























Interactive Weather Map
Tropical Storm Tracking
New forecast layout! Learn more

10-Day Weather Forecast

Advertisements
Track Severe Weather on mobile